FW1436 Weather Reports


time (UTC)temp
C
wind
direction
speed
KPH
gust
KPH
rain 1hr
cm
rain 24hr
cm
rain mn
cm
humidity
%
barometer
mb
20190418201718 9 30 4.8 11.3 0.03 1.91 1.83 88 1013.0
20190418200322 9 114 4.8 11.3 0.00 1.88 1.80 88 1012.6
20190418194701 9 31 3.2 8.0 0.00 1.93 1.80 87 1012.5
20190418193146 10 80 0.0 6.4 0.00 1.93 1.80 87 1012.1
20190418191702 10 48 1.6 8.0 0.00 1.93 1.80 85 1011.9
20190418190154 10 49 0.0 8.0 0.00 1.93 1.80 86 1011.6
20190418184636 10 44 1.6 11.3 0.00 1.93 1.80 87 1011.4
20190418183157 10 56 0.0 6.4 0.00 1.93 1.80 87 1011.5
20190418181808 10 35 0.0 0.0 0.00 1.93 1.80 88 1011.4
20190418180247 10 343 0.0 0.0 0.00 1.93 1.80 88 1011.2
20190418174645 10 9 0.0 0.0 0.00 1.93 1.80 88 1011.3
20190418173220 10 36 0.0 3.2 0.00 1.93 1.80 87 1011.1
20190418171635 10 327 0.0 0.0 0.00 1.93 1.80 88 1010.9
20190418170251 10 352 1.6 4.8 0.00 1.93 1.80 87 1010.7
20190418164623 10 319 3.2 6.4 0.00 1.93 1.80 87 1010.9
20190418163157 10 94 0.0 6.4 0.00 1.93 1.80 87 1011.2
20190418161650 10 38 1.6 9.7 0.00 1.93 1.80 87 1011.1
20190418160143 10 51 4.8 9.7 0.00 1.93 1.80 85 1010.9
20190418154627 10 348 1.6 4.8 0.03 1.93 1.80 83 1010.9
20190418153119 10 328 1.6 3.2 0.03 1.93 1.80 86 1010.9
20190418151707 10 75 0.0 0.0 0.03 1.93 1.80 86 1011.3
20190418150115 10 354 0.0 0.0 0.03 1.93 1.80 86 1011.5
20190418144641 10 13 1.6 4.8 0.00 1.91 1.78 84 1011.4
20190418143122 10 65 3.2 6.4 0.00 1.91 1.78 84 1011.5
20190418141703 10 356 1.6 8.0 0.00 1.91 1.78 84 1011.3
20190418140111 10 44 1.6 4.8 0.00 1.91 1.78 86 1011.3
20190418134630 10 61 1.6 4.8 0.00 1.91 1.78 84 1011.7
20190418133221 10 35 1.6 8.0 0.00 1.91 1.78 85 1011.8
20190418131551 10 34 4.8 11.3 0.00 1.91 1.78 85 1011.6
20190418130154 10 59 3.2 14.5 0.00 1.91 1.78 86 1011.5
20190418124605 9 50 6.4 16.1 0.00 1.91 1.78 87 1011.7
20190418123052 9 58 4.8 9.7 0.00 1.91 1.78 87 1011.6
20190418121610 9 46 3.2 9.7 0.00 1.91 1.78 88 1011.8
20190418120107 9 67 3.2 8.0 0.00 1.91 1.78 86 1011.8
20190418114546 9 315 3.2 8.0 0.00 1.91 1.78 89 1011.9
20190418113117 8 82 6.4 11.3 0.03 1.91 1.78 89 1012.2
20190418111550 8 67 3.2 12.9 0.05 1.91 1.78 91 1012.4
20190418104653 8 63 6.4 17.7 0.15 1.91 1.78 92 1012.8
20190418103111 8 53 6.4 14.5 0.20 1.88 1.75 92 1012.8
20190418101546 8 85 3.2 12.9 0.25 1.85 1.73 92 1013.0
20190418100110 8 31 8.0 17.7 0.23 1.80 1.68 93 1013.0
20190418094600 8 60 4.8 11.3 0.20 1.75 1.63 93 1013.2
20190418093104 8 43 3.2 8.0 0.13 1.68 1.55 93 1013.2
20190418091549 8 116 4.8 9.7 0.08 1.60 1.45 93 1013.2
20190418090101 8 122 0.0 6.4 0.03 1.55 1.42 93 1012.7
20190418084517 8 31 1.6 6.4 0.03 1.55 1.42 93 1012.4
20190418083021 8 41 3.2 6.4 0.03 1.55 1.42 93 1012.3
20190418081527 8 49 3.2 4.8 0.03 1.52 1.40 94 1012.3
20190418074528 8 65 1.6 11.3 0.08 1.52 1.40 94 1011.9
20190418073043 8 8 1.6 9.7 0.10 1.52 1.40 94 1012.2
20190418071525 8 102 1.6 6.4 0.10 1.50 1.37 94 1012.5
20190418070015 8 74 0.0 6.4 0.10 1.45 1.35 94 1012.5
20190418064521 8 72 3.2 8.0 0.08 1.42 1.32 94 1012.5
20190418063018 8 103 1.6 6.4 0.08 1.42 1.30 94 1012.2
20190418061531 8 94 0.0 6.4 0.08 1.40 1.27 94 1012.3
20190418060020 8 61 1.6 3.2 0.05 1.37 1.24 94 1011.9
20190418054537 8 34 1.6 4.8 0.08 1.37 1.24 93 1011.9
20190418053037 8 36 0.0 0.0 0.10 1.35 1.22 94 1011.8
20190418051531 8 56 0.0 0.0 0.13 1.32 1.19 93 1011.6
20190418050017 8 11 0.0 0.0 0.20 1.32 1.19 93 1011.5
20190418044513 8 89 0.0 0.0 0.20 1.30 1.17 93 1011.6
20190418043023 8 95 0.0 0.0 0.20 1.24 1.12 92 1011.7
20190418041519 8 95 0.0 0.0 0.15 1.17 1.04 92 1011.7
20190418040003 8 207 0.0 0.0 0.13 1.12 0.99 93 1011.5
20190418034509 8 207 0.0 0.0 0.15 1.09 0.97 92 1011.6
20190418033013 8 221 0.0 0.0 0.15 1.04 0.91 92 1011.8
20190418031508 8 272 0.0 3.2 0.23 1.02 0.89 93 1011.5
20190418030255 8 271 0.0 3.2 0.28 0.99 0.86 92 1011.6
20190418030001 8 271 0.0 6.4 0.25 0.97 0.84 92 1011.5
20190418024634 8 228 3.2 11.3 0.36 0.94 0.81 92 1011.8
20190418023256 8 331 8.0 17.7 0.41 0.89 0.76 92 1012.1
20190418021729 8 217 3.2 12.9 0.30 0.79 0.66 92 1012.1
20190418020137 9 233 8.0 17.7 0.25 0.71 0.58 91 1012.0
20190418014626 9 249 9.7 17.7 0.23 0.58 0.46 90 1012.1
20190418013136 10 266 4.8 14.5 0.15 0.48 0.36 91 1012.2
20190418011653 10 252 3.2 11.3 0.23 0.48 0.36 90 1012.3
20190418010152 11 206 6.4 20.9 0.23 0.46 0.33 89 1012.3
20190418004605 11 212 8.0 20.9 0.15 0.36 0.23 89 1012.3
20190418003126 12 127 3.2 9.7 0.15 0.33 0.20 90 1011.7
20190418001547 12 162 1.6 14.5 0.10 0.25 0.13 89 1011.8
20190418000058 12 206 1.6 4.8 0.08 0.23 0.10 89 1011.8
20190417234555 12 115 0.0 4.8 0.05 0.20 0.08 89 1011.9
20190417233050 12 85 1.6 6.4 0.03 0.18 0.05 88 1011.8
20190417231605 12 129 0.0 0.0 0.03 0.15 0.03 89 1011.8
20190417230129 12 160 0.0 1.6 0.03 0.15 0.03 89 1011.9
20190417224540 12 75 0.0 0.0 0.03 0.15 0.03 89 1011.6
20190417223120 12 208 0.0 0.0 0.03 0.15 0.03 89 1011.7
20190417221607 12 158 0.0 0.0 0.00 0.13 0.00 88 1011.7
20190417220107 12 18 0.0 0.0 0.00 0.13 0.00 88 1011.2
20190417214546 12 89 0.0 3.2 0.03 0.13 0.13 88 1010.9
20190417213119 12 51 0.0 6.4 0.03 0.13 0.13 88 1010.9
20190417211555 12 81 1.6 9.7 0.05 0.13 0.13 87 1011.0
20190417210027 13 117 4.8 11.3 0.08 0.13 0.13 86 1010.7
20190417204540 13 261 0.0 0.0 0.08 0.10 0.10 85 1011.0
20190417203056 13 214 3.2 9.7 0.10 0.10 0.10 84 1011.0